Idabel, OK

10:20 AM CDT on August 27, 2016 (GMT -0500)
Idabel

Weather History for K4O4 - January, 2014

Change the Weather History Date:

Saturday, January 11, 2014

  Actual Average (KDEQ) Record (KDEQ)
Temperature  
Mean Temperature 48 °F 41 °F  
Max Temperature 60 °F 53 °F 76 °F (1990)
Min Temperature 35 °F 30 °F -4 °F (1962)
Degree Days  
Heating Degree Days 18 24  
Month to date heating degree days 258  
Since 1 July heating degree days 1467  
Cooling Degree Days 0 0  
Month to date cooling degree days 0  
Year to date cooling degree days 0  
Moisture  
Dew Point 32 °F    
Average Humidity 63    
Maximum Humidity 100    
Minimum Humidity 31    
Precipitation  
Precipitation 0.00 in 0.11 in 0.86 in (1994)
Month to date precipitation 1.21  
Year to date precipitation 1.21  
Snow  
Snow 0.00 in - - ()
Month to date snowfall  
Since 1 July snowfall  
Snow Depth -    
Sea Level Pressure  
Sea Level Pressure 29.97 in    
Wind  
Wind Speed 6 mph (West)    
Max Wind Speed 16 mph    
Max Gust Speed 21 mph    
Visibility 10 miles    
Events      
T = Trace of Precipitation, MM = Missing Value Source: NWS Daily Summary

Daily Weather History Graph

Daily Weather History Graph

Search for Another Location

Airport or City:

Trip Planner

Search our weather history database for the weather conditions in past years. The results will help you decide how hot, cold, wet, or windy it might be!

Date:

Astronomy

Jan. 11, 2014 Rise Set
Actual Time 7:25 AM CST 5:29 PM CST
Civil Twilight 6:57 AM CST 5:57 PM CST
Nautical Twilight 6:27 AM CST 6:28 PM CST
Astronomical Twilight 5:56 AM CST 6:58 PM CST
Moon 2:12 PM CST (1/11) 3:33 AM CST (1/11)
Length of Visible Light 10h 59m
Length of Day
10h 04m
Waxing Gibbous, 83% of the Moon is Illuminated
Jan 11
Waxing Gibbous
Jan 15
Full
Jan 23
Last Quarter
Jan 30
New
Feb 6
First Quarter

Hourly Weather History & Observations

Time (CST) Temp. Windchill Dew Point Humidity Pressure Visibility Wind Dir Wind Speed Gust Speed Precip Events Conditions
12:15 AM 42.8 °F - 41.0 °F 93% 29.80 in 10.0 mi Calm Calm - N/A   Clear
12:35 AM 41.0 °F - 39.2 °F 93% 29.80 in 10.0 mi Calm Calm - N/A   Clear
12:55 AM 41.0 °F 37.1 °F 39.2 °F 93% 29.80 in 10.0 mi SSW 5.8 mph - N/A   Clear
12:59 AM 41.0 °F 37.1 °F 39.2 °F 93% 29.81 in 10.0 mi SSW 5.8 mph - N/A   Clear
1:19 AM 39.2 °F 37.0 °F 37.4 °F 93% 29.81 in 10.0 mi SW 3.5 mph - N/A   Clear
1:35 AM 37.4 °F 34.9 °F 35.6 °F 93% 29.81 in 10.0 mi SW 3.5 mph - N/A   Clear
1:55 AM 37.4 °F 34.9 °F 35.6 °F 93% 29.82 in 10.0 mi WSW 3.5 mph - N/A   Clear
2:15 AM 37.4 °F 34.9 °F 35.6 °F 93% 29.83 in 7.0 mi West 3.5 mph - N/A   Clear
2:35 AM 37.4 °F 33.8 °F 35.6 °F 93% 29.84 in 7.0 mi West 4.6 mph - N/A   Clear
2:55 AM 37.4 °F 34.9 °F 37.4 °F 100% 29.84 in 10.0 mi WSW 3.5 mph - N/A   Clear
3:35 AM 39.2 °F 34.2 °F 37.4 °F 93% 29.85 in 10.0 mi NW 6.9 mph - N/A   Clear
3:55 AM 39.2 °F 35.0 °F 37.4 °F 93% 29.85 in 10.0 mi NW 5.8 mph - N/A   Clear
4:15 AM 39.2 °F 33.6 °F 37.4 °F 93% 29.85 in 10.0 mi NW 8.1 mph - N/A   Clear
4:35 AM 39.2 °F 35.0 °F 37.4 °F 93% 29.87 in 10.0 mi WNW 5.8 mph - N/A   Clear
4:55 AM 39.2 °F 35.0 °F 37.4 °F 93% 29.88 in 10.0 mi WNW 5.8 mph - N/A   Clear
5:15 AM 39.2 °F 35.0 °F 35.6 °F 87% 29.89 in 10.0 mi NW 5.8 mph - N/A   Clear
5:35 AM 39.2 °F 35.0 °F 33.8 °F 81% 29.90 in 10.0 mi WNW 5.8 mph - N/A   Clear
5:55 AM 37.4 °F 32.8 °F 33.8 °F 87% 29.91 in 10.0 mi WNW 5.8 mph - N/A   Clear
6:15 AM 37.4 °F 32.8 °F 33.8 °F 87% 29.92 in 10.0 mi West 5.8 mph - N/A   Clear
6:35 AM 37.4 °F 32.8 °F 32.0 °F 81% 29.93 in 10.0 mi West 5.8 mph - N/A   Clear
6:55 AM 35.6 °F 32.8 °F 32.0 °F 87% 29.94 in 10.0 mi WSW 3.5 mph - N/A   Clear
7:15 AM 35.6 °F 29.9 °F 32.0 °F 87% 29.95 in 10.0 mi WSW 6.9 mph - N/A   Clear
7:35 AM 35.6 °F 30.7 °F 32.0 °F 87% 29.96 in 10.0 mi West 5.8 mph - N/A   Clear
7:55 AM 35.6 °F 30.7 °F 32.0 °F 87% 29.98 in 10.0 mi West 5.8 mph - N/A   Clear
8:15 AM 37.4 °F 32.8 °F 33.8 °F 87% 29.99 in 10.0 mi West 5.8 mph - N/A   Clear
8:35 AM 39.2 °F 33.6 °F 33.8 °F 81% 29.99 in 10.0 mi West 8.1 mph - N/A   Clear
8:55 AM 41.0 °F 35.8 °F 33.8 °F 76% 30.00 in 10.0 mi West 8.1 mph - N/A   Clear
9:15 AM 42.8 °F 37.0 °F 33.8 °F 70% 30.02 in 10.0 mi West 10.4 mph - N/A   Clear
9:35 AM 44.6 °F 40.2 °F 33.8 °F 66% 30.02 in 10.0 mi West 8.1 mph - N/A   Clear
9:55 AM 46.4 °F 42.4 °F 33.8 °F 62% 30.03 in 10.0 mi WNW 8.1 mph - N/A   Clear
10:15 AM 46.4 °F 41.9 °F 33.8 °F 62% 30.04 in 10.0 mi West 9.2 mph - N/A   Clear
10:35 AM 50.0 °F - 35.6 °F 58% 30.04 in 10.0 mi West 10.4 mph - N/A   Clear
10:55 AM 50.0 °F - 35.6 °F 58% 30.04 in 10.0 mi West 8.1 mph - N/A   Clear
11:15 AM 51.8 °F - 37.4 °F 58% 30.04 in 10.0 mi WSW 9.2 mph - N/A   Clear
11:35 AM 51.8 °F - 35.6 °F 54% 30.03 in 10.0 mi West 11.5 mph - N/A   Clear
11:55 AM 53.6 °F - 35.6 °F 51% 30.02 in 10.0 mi West 9.2 mph - N/A   Clear
12:15 PM 55.4 °F - 35.6 °F 47% 30.01 in 10.0 mi West 9.2 mph - N/A   Clear
12:35 PM 57.2 °F - 32.0 °F 38% 30.01 in 10.0 mi WNW 11.5 mph 18.4 mph N/A   Clear
12:55 PM 57.2 °F - 32.0 °F 38% 30.00 in 10.0 mi West 16.1 mph 19.6 mph N/A   Clear
1:15 PM 59.0 °F - 32.0 °F 36% 30.00 in 10.0 mi West 16.1 mph - N/A   Clear
1:35 PM 59.0 °F - 32.0 °F 36% 29.99 in 10.0 mi West 13.8 mph 17.3 mph N/A   Clear
1:55 PM 59.0 °F - 32.0 °F 36% 29.99 in 10.0 mi West 12.7 mph 20.7 mph N/A   Clear
2:15 PM 60.8 °F - 32.0 °F 34% 29.99 in 10.0 mi WNW 15.0 mph - N/A   Clear
2:35 PM 60.8 °F - 32.0 °F 34% 29.99 in 10.0 mi West 15.0 mph - N/A   Clear
2:55 PM 60.8 °F - 32.0 °F 34% 29.99 in 10.0 mi West 12.7 mph 18.4 mph N/A   Clear
3:15 PM 60.8 °F - 30.2 °F 31% 30.00 in 10.0 mi WNW 15.0 mph 18.4 mph N/A   Clear
3:35 PM 60.8 °F - 30.2 °F 31% 30.00 in 10.0 mi West 10.4 mph 17.3 mph N/A   Clear
3:55 PM 60.8 °F - 32.0 °F 34% 30.00 in 10.0 mi West 8.1 mph - N/A   Clear
4:15 PM 60.8 °F - 32.0 °F 34% 30.01 in 10.0 mi WNW 8.1 mph - N/A   Clear
4:35 PM 60.8 °F - 32.0 °F 34% 30.01 in 10.0 mi WNW 10.4 mph - N/A   Clear
4:55 PM 60.8 °F - 30.2 °F 31% 30.01 in 10.0 mi WNW 8.1 mph - N/A   Clear
5:15 PM 59.0 °F - 28.4 °F 31% 30.01 in 10.0 mi WNW 5.8 mph - N/A   Clear
5:35 PM 57.2 °F - 28.4 °F 33% 30.02 in 10.0 mi WNW 8.1 mph - N/A   Clear
5:55 PM 53.6 °F - 26.6 °F 35% 30.02 in 10.0 mi WNW 5.8 mph - N/A   Clear
6:15 PM 53.6 °F - 26.6 °F 35% 30.02 in 10.0 mi West 3.5 mph - N/A   Clear
6:55 PM 50.0 °F - 26.6 °F 40% 30.03 in 10.0 mi WNW 3.5 mph - N/A   Clear
6:59 PM 51.8 °F - 24.8 °F 35% 30.03 in 10.0 mi West 3.5 mph - N/A   Clear
7:15 PM 50.0 °F - 26.6 °F 40% 30.04 in 10.0 mi West 4.6 mph - N/A   Clear
7:35 PM 46.4 °F 44.3 °F 26.6 °F 46% 30.04 in 10.0 mi WNW 4.6 mph - N/A   Clear
7:39 PM 48.2 °F - 26.6 °F 43% 30.04 in 10.0 mi WNW 4.6 mph - N/A   Clear
8:01 PM 46.4 °F - 26.6 °F 46% 30.04 in 10.0 mi Calm Calm - N/A   Clear
8:19 PM 46.4 °F - 24.8 °F 43% 30.05 in 10.0 mi Calm Calm - N/A   Clear
8:39 PM 44.6 °F 41.4 °F 28.4 °F 53% 30.06 in 10.0 mi SW 5.8 mph - N/A   Clear
8:59 PM 42.8 °F 41.1 °F 28.4 °F 57% 30.07 in 10.0 mi SW 3.5 mph - N/A   Clear
9:19 PM 42.8 °F 41.1 °F 26.6 °F 53% 30.07 in 10.0 mi SW 3.5 mph - N/A   Clear
9:39 PM 39.2 °F - 28.4 °F 65% 30.07 in 10.0 mi Calm Calm - N/A   Clear
10:15 PM 41.0 °F 38.0 °F 28.4 °F 61% 30.07 in 10.0 mi SSW 4.6 mph - N/A   Clear
10:55 PM 39.2 °F 37.0 °F 28.4 °F 65% 30.07 in 10.0 mi SSW 3.5 mph - N/A   Clear
10:59 PM 39.2 °F - 28.4 °F 65% 30.07 in 10.0 mi Calm Calm - N/A   Clear
11:19 PM 37.4 °F - 30.2 °F 75% 30.06 in 10.0 mi Calm Calm - N/A   Clear
11:55 PM 35.6 °F - 28.4 °F 75% 30.06 in 10.0 mi Calm Calm - N/A   Clear